Bearsden, United Kingdom
Current Conditions -  °F | °C
As of 2:50 AM on Sunday 26 Oct 2014 (Local Time) from EGPF Reporting Station
Overcast Overcast  
Wind Chill: 54°   Ceiling: 2700
Heat Index: 54°   Visibility: 6mi
Dew Point: 46°   Wind: 22mph
Humidity: 77%   Direction: 220°SW
Pressure: 29.71"   Gusts: NA
Location:  55.92°N, 4.33°W
Report Text: EGPF 260150Z AUTO 22019KT 9999 OVC027/// //////TCU 12/08 Q1006
Loading
Personal Weather Stations






























Interactive Weather Map New forecast layout! Learn more

10-Day Weather Forecast

Advertisements
Track Severe Weather on mobile